sensor_id;sensor_type;location;lat;lon;timestamp;P1;durP1;ratioP1;P2;durP2;ratioP2
21943;SDS011;11136;48.778;9.126;2023-04-25T00:01:00;4.30;;;1.67;;
21943;SDS011;11136;48.778;9.126;2023-04-25T00:03:27;1.25;;;1.00;;
21943;SDS011;11136;48.778;9.126;2023-04-25T00:05:54;1.40;;;1.00;;
21943;SDS011;11136;48.778;9.126;2023-04-25T00:08:21;1.27;;;1.17;;
21943;SDS011;11136;48.778;9.126;2023-04-25T00:10:47;1.45;;;1.08;;
21943;SDS011;11136;48.778;9.126;2023-04-25T00:13:14;2.17;;;1.00;;
21943;SDS011;11136;48.778;9.126;2023-04-25T00:15:40;1.20;;;1.10;;
21943;SDS011;11136;48.778;9.126;2023-04-25T00:18:06;2.42;;;1.08;;
21943;SDS011;11136;48.778;9.126;2023-04-25T00:20:32;4.78;;;1.40;;
21943;SDS011;11136;48.778;9.126;2023-04-25T00:22:58;2.28;;;1.10;;
21943;SDS011;11136;48.778;9.126;2023-04-25T00:25:24;1.10;;;1.00;;
21943;SDS011;11136;48.778;9.126;2023-04-25T00:27:50;1.42;;;1.30;;
21943;SDS011;11136;48.778;9.126;2023-04-25T00:30:15;2.70;;;1.42;;
21943;SDS011;11136;48.778;9.126;2023-04-25T00:32:41;2.17;;;1.35;;
21943;SDS011;11136;48.778;9.126;2023-04-25T00:35:07;1.38;;;1.05;;
21943;SDS011;11136;48.778;9.126;2023-04-25T00:37:34;2.92;;;1.08;;
21943;SDS011;11136;48.778;9.126;2023-04-25T00:40:00;2.05;;;1.30;;
21943;SDS011;11136;48.778;9.126;2023-04-25T00:42:25;2.55;;;1.10;;
21943;SDS011;11136;48.778;9.126;2023-04-25T00:44:52;2.58;;;1.30;;
21943;SDS011;11136;48.778;9.126;2023-04-25T00:47:18;2.20;;;1.60;;
21943;SDS011;11136;48.778;9.126;2023-04-25T00:49:44;4.75;;;1.42;;
21943;SDS011;11136;48.778;9.126;2023-04-25T00:52:10;1.77;;;1.13;;
21943;SDS011;11136;48.778;9.126;2023-04-25T00:54:36;2.47;;;1.20;;
21943;SDS011;11136;48.778;9.126;2023-04-25T00:57:03;3.33;;;1.30;;
21943;SDS011;11136;48.778;9.126;2023-04-25T00:59:28;3.53;;;1.00;;
21943;SDS011;11136;48.778;9.126;2023-04-25T01:01:55;5.70;;;1.83;;
21943;SDS011;11136;48.778;9.126;2023-04-25T01:04:22;1.40;;;1.30;;
21943;SDS011;11136;48.778;9.126;2023-04-25T01:06:47;2.72;;;1.33;;
21943;SDS011;11136;48.778;9.126;2023-04-25T01:09:14;4.50;;;1.45;;
21943;SDS011;11136;48.778;9.126;2023-04-25T01:11:40;4.97;;;1.48;;
21943;SDS011;11136;48.778;9.126;2023-04-25T01:14:05;3.42;;;1.42;;
21943;SDS011;11136;48.778;9.126;2023-04-25T01:16:31;3.15;;;1.50;;
21943;SDS011;11136;48.778;9.126;2023-04-25T01:18:58;2.00;;;1.20;;
21943;SDS011;11136;48.778;9.126;2023-04-25T01:21:24;2.97;;;1.20;;
21943;SDS011;11136;48.778;9.126;2023-04-25T01:23:52;1.63;;;1.20;;
21943;SDS011;11136;48.778;9.126;2023-04-25T01:26:19;1.80;;;1.15;;
21943;SDS011;11136;48.778;9.126;2023-04-25T01:28:46;3.47;;;1.30;;
21943;SDS011;11136;48.778;9.126;2023-04-25T01:31:13;2.60;;;1.35;;
21943;SDS011;11136;48.778;9.126;2023-04-25T01:33:40;2.53;;;1.45;;
21943;SDS011;11136;48.778;9.126;2023-04-25T01:36:06;3.70;;;1.40;;
21943;SDS011;11136;48.778;9.126;2023-04-25T01:38:32;3.03;;;1.85;;
21943;SDS011;11136;48.778;9.126;2023-04-25T01:40:58;2.75;;;1.42;;
21943;SDS011;11136;48.778;9.126;2023-04-25T01:43:23;5.43;;;1.63;;
21943;SDS011;11136;48.778;9.126;2023-04-25T01:45:50;5.50;;;1.65;;
21943;SDS011;11136;48.778;9.126;2023-04-25T01:48:16;4.13;;;1.73;;
21943;SDS011;11136;48.778;9.126;2023-04-25T01:50:42;2.42;;;2.03;;
21943;SDS011;11136;48.778;9.126;2023-04-25T01:53:08;2.55;;;1.40;;
21943;SDS011;11136;48.778;9.126;2023-04-25T01:55:35;3.35;;;1.45;;
21943;SDS011;11136;48.778;9.126;2023-04-25T01:58:02;2.10;;;1.45;;
21943;SDS011;11136;48.778;9.126;2023-04-25T02:00:28;3.15;;;1.90;;
21943;SDS011;11136;48.778;9.126;2023-04-25T02:02:57;3.45;;;1.90;;
21943;SDS011;11136;48.778;9.126;2023-04-25T02:05:23;1.95;;;1.20;;
21943;SDS011;11136;48.778;9.126;2023-04-25T02:07:49;5.22;;;1.67;;
21943;SDS011;11136;48.778;9.126;2023-04-25T02:10:14;2.17;;;1.50;;
21943;SDS011;11136;48.778;9.126;2023-04-25T02:12:40;4.85;;;1.50;;
21943;SDS011;11136;48.778;9.126;2023-04-25T02:15:06;2.08;;;1.30;;
21943;SDS011;11136;48.778;9.126;2023-04-25T02:17:32;2.67;;;1.42;;
21943;SDS011;11136;48.778;9.126;2023-04-25T02:19:58;2.40;;;1.25;;
21943;SDS011;11136;48.778;9.126;2023-04-25T02:22:24;1.45;;;1.20;;
21943;SDS011;11136;48.778;9.126;2023-04-25T02:24:50;2.03;;;1.70;;
21943;SDS011;11136;48.778;9.126;2023-04-25T02:27:15;4.20;;;1.20;;
21943;SDS011;11136;48.778;9.126;2023-04-25T02:29:41;2.63;;;1.40;;
21943;SDS011;11136;48.778;9.126;2023-04-25T02:32:06;3.70;;;1.20;;
21943;SDS011;11136;48.778;9.126;2023-04-25T02:34:32;3.47;;;1.67;;
21943;SDS011;11136;48.778;9.126;2023-04-25T02:36:58;4.63;;;2.42;;
21943;SDS011;11136;48.778;9.126;2023-04-25T02:39:23;2.70;;;1.30;;
21943;SDS011;11136;48.778;9.126;2023-04-25T02:41:50;2.10;;;1.40;;
21943;SDS011;11136;48.778;9.126;2023-04-25T02:44:16;1.40;;;1.25;;
21943;SDS011;11136;48.778;9.126;2023-04-25T02:46:42;2.17;;;1.60;;
21943;SDS011;11136;48.778;9.126;2023-04-25T02:49:07;3.28;;;1.63;;
21943;SDS011;11136;48.778;9.126;2023-04-25T02:51:33;4.05;;;1.60;;
21943;SDS011;11136;48.778;9.126;2023-04-25T02:53:58;2.67;;;1.60;;
21943;SDS011;11136;48.778;9.126;2023-04-25T02:56:24;2.38;;;1.50;;
21943;SDS011;11136;48.778;9.126;2023-04-25T02:58:51;1.42;;;1.20;;
21943;SDS011;11136;48.778;9.126;2023-04-25T03:01:17;3.28;;;1.52;;
21943;SDS011;11136;48.778;9.126;2023-04-25T03:03:42;3.75;;;1.50;;
21943;SDS011;11136;48.778;9.126;2023-04-25T03:06:08;2.25;;;1.42;;
21943;SDS011;11136;48.778;9.126;2023-04-25T03:08:33;2.25;;;1.50;;
21943;SDS011;11136;48.778;9.126;2023-04-25T03:10:59;2.80;;;1.40;;
21943;SDS011;11136;48.778;9.126;2023-04-25T03:13:25;2.67;;;1.52;;
21943;SDS011;11136;48.778;9.126;2023-04-25T03:15:52;2.05;;;1.50;;
21943;SDS011;11136;48.778;9.126;2023-04-25T03:18:18;3.17;;;1.65;;
21943;SDS011;11136;48.778;9.126;2023-04-25T03:20:43;2.90;;;1.40;;
21943;SDS011;11136;48.778;9.126;2023-04-25T03:23:09;5.80;;;2.08;;
21943;SDS011;11136;48.778;9.126;2023-04-25T03:25:35;2.35;;;1.65;;
21943;SDS011;11136;48.778;9.126;2023-04-25T03:28:00;2.15;;;1.52;;
21943;SDS011;11136;48.778;9.126;2023-04-25T03:30:26;4.18;;;1.55;;
21943;SDS011;11136;48.778;9.126;2023-04-25T03:32:51;3.05;;;1.50;;
21943;SDS011;11136;48.778;9.126;2023-04-25T03:35:17;2.70;;;1.98;;
21943;SDS011;11136;48.778;9.126;2023-04-25T03:37:42;2.83;;;1.48;;
21943;SDS011;11136;48.778;9.126;2023-04-25T03:40:11;4.70;;;1.80;;
21943;SDS011;11136;48.778;9.126;2023-04-25T03:42:37;3.65;;;1.73;;
21943;SDS011;11136;48.778;9.126;2023-04-25T03:45:02;1.75;;;1.42;;
21943;SDS011;11136;48.778;9.126;2023-04-25T03:47:28;5.03;;;1.40;;
21943;SDS011;11136;48.778;9.126;2023-04-25T03:49:54;2.70;;;1.50;;
21943;SDS011;11136;48.778;9.126;2023-04-25T03:52:20;3.47;;;2.05;;
21943;SDS011;11136;48.778;9.126;2023-04-25T03:54:45;2.05;;;1.75;;
21943;SDS011;11136;48.778;9.126;2023-04-25T03:57:11;3.05;;;1.48;;
21943;SDS011;11136;48.778;9.126;2023-04-25T03:59:37;4.03;;;1.70;;
21943;SDS011;11136;48.778;9.126;2023-04-25T04:02:02;3.17;;;2.00;;
21943;SDS011;11136;48.778;9.126;2023-04-25T04:04:28;1.88;;;1.52;;
21943;SDS011;11136;48.778;9.126;2023-04-25T04:06:53;2.65;;;1.90;;
21943;SDS011;11136;48.778;9.126;2023-04-25T04:09:19;3.90;;;1.92;;
21943;SDS011;11136;48.778;9.126;2023-04-25T04:11:45;4.65;;;1.63;;
21943;SDS011;11136;48.778;9.126;2023-04-25T04:14:11;2.50;;;1.58;;
21943;SDS011;11136;48.778;9.126;2023-04-25T04:16:36;4.78;;;2.00;;
21943;SDS011;11136;48.778;9.126;2023-04-25T04:19:02;4.18;;;1.60;;
21943;SDS011;11136;48.778;9.126;2023-04-25T04:21:28;3.25;;;1.77;;
21943;SDS011;11136;48.778;9.126;2023-04-25T04:23:53;3.55;;;1.80;;
21943;SDS011;11136;48.778;9.126;2023-04-25T04:26:20;3.97;;;2.42;;
21943;SDS011;11136;48.778;9.126;2023-04-25T04:28:49;4.20;;;2.30;;
21943;SDS011;11136;48.778;9.126;2023-04-25T04:31:16;5.50;;;2.42;;
21943;SDS011;11136;48.778;9.126;2023-04-25T04:33:44;3.70;;;2.47;;
21943;SDS011;11136;48.778;9.126;2023-04-25T04:36:10;2.55;;;2.35;;
21943;SDS011;11136;48.778;9.126;2023-04-25T04:38:36;3.70;;;2.58;;
21943;SDS011;11136;48.778;9.126;2023-04-25T04:41:02;3.63;;;2.15;;
21943;SDS011;11136;48.778;9.126;2023-04-25T04:43:28;3.65;;;1.83;;
21943;SDS011;11136;48.778;9.126;2023-04-25T04:45:54;4.40;;;2.58;;
21943;SDS011;11136;48.778;9.126;2023-04-25T04:48:23;3.13;;;2.40;;
21943;SDS011;11136;48.778;9.126;2023-04-25T04:50:51;3.05;;;2.13;;
21943;SDS011;11136;48.778;9.126;2023-04-25T04:53:17;3.03;;;2.03;;
21943;SDS011;11136;48.778;9.126;2023-04-25T04:55:43;7.43;;;2.80;;
21943;SDS011;11136;48.778;9.126;2023-04-25T04:58:08;3.10;;;1.90;;
21943;SDS011;11136;48.778;9.126;2023-04-25T05:00:34;3.65;;;2.00;;
21943;SDS011;11136;48.778;9.126;2023-04-25T05:02:59;5.10;;;2.00;;
21943;SDS011;11136;48.778;9.126;2023-04-25T05:05:25;4.57;;;1.88;;
21943;SDS011;11136;48.778;9.126;2023-04-25T05:07:51;5.82;;;2.38;;
21943;SDS011;11136;48.778;9.126;2023-04-25T05:10:17;3.38;;;1.90;;
21943;SDS011;11136;48.778;9.126;2023-04-25T05:12:43;2.08;;;1.88;;
21943;SDS011;11136;48.778;9.126;2023-04-25T05:15:09;4.78;;;2.78;;
21943;SDS011;11136;48.778;9.126;2023-04-25T05:17:35;3.65;;;1.75;;
21943;SDS011;11136;48.778;9.126;2023-04-25T05:20:01;3.83;;;2.58;;
21943;SDS011;11136;48.778;9.126;2023-04-25T05:22:27;3.10;;;1.83;;
21943;SDS011;11136;48.778;9.126;2023-04-25T05:24:53;3.05;;;2.40;;
21943;SDS011;11136;48.778;9.126;2023-04-25T05:27:19;7.65;;;2.85;;
21943;SDS011;11136;48.778;9.126;2023-04-25T05:29:45;2.85;;;2.33;;
21943;SDS011;11136;48.778;9.126;2023-04-25T05:32:10;3.25;;;2.22;;
21943;SDS011;11136;48.778;9.126;2023-04-25T05:34:36;3.80;;;2.30;;
21943;SDS011;11136;48.778;9.126;2023-04-25T05:37:02;3.50;;;2.63;;
21943;SDS011;11136;48.778;9.126;2023-04-25T05:39:27;5.15;;;2.35;;
21943;SDS011;11136;48.778;9.126;2023-04-25T05:41:53;3.70;;;2.45;;
21943;SDS011;11136;48.778;9.126;2023-04-25T05:44:19;2.33;;;2.05;;
21943;SDS011;11136;48.778;9.126;2023-04-25T05:46:44;5.38;;;2.40;;
21943;SDS011;11136;48.778;9.126;2023-04-25T05:49:10;3.85;;;2.60;;
21943;SDS011;11136;48.778;9.126;2023-04-25T05:51:35;2.58;;;2.30;;
21943;SDS011;11136;48.778;9.126;2023-04-25T05:54:01;5.30;;;2.03;;
21943;SDS011;11136;48.778;9.126;2023-04-25T05:56:27;2.58;;;2.10;;
21943;SDS011;11136;48.778;9.126;2023-04-25T05:58:52;3.78;;;2.10;;
21943;SDS011;11136;48.778;9.126;2023-04-25T06:01:18;3.28;;;1.90;;
21943;SDS011;11136;48.778;9.126;2023-04-25T06:03:43;4.80;;;2.30;;
21943;SDS011;11136;48.778;9.126;2023-04-25T06:06:09;3.33;;;2.30;;
21943;SDS011;11136;48.778;9.126;2023-04-25T06:08:36;2.80;;;2.30;;
21943;SDS011;11136;48.778;9.126;2023-04-25T06:11:03;2.40;;;2.20;;
21943;SDS011;11136;48.778;9.126;2023-04-25T06:13:28;2.42;;;1.73;;
21943;SDS011;11136;48.778;9.126;2023-04-25T06:15:54;2.28;;;2.03;;
21943;SDS011;11136;48.778;9.126;2023-04-25T06:18:19;2.97;;;1.90;;
21943;SDS011;11136;48.778;9.126;2023-04-25T06:20:45;2.13;;;1.85;;
21943;SDS011;11136;48.778;9.126;2023-04-25T06:23:11;2.47;;;2.00;;
21943;SDS011;11136;48.778;9.126;2023-04-25T06:25:36;2.67;;;1.90;;
21943;SDS011;11136;48.778;9.126;2023-04-25T06:28:02;2.90;;;1.90;;
21943;SDS011;11136;48.778;9.126;2023-04-25T06:30:28;4.18;;;2.10;;
21943;SDS011;11136;48.778;9.126;2023-04-25T06:32:53;2.80;;;1.80;;
21943;SDS011;11136;48.778;9.126;2023-04-25T06:35:19;2.35;;;2.08;;
21943;SDS011;11136;48.778;9.126;2023-04-25T06:37:45;3.88;;;2.28;;
21943;SDS011;11136;48.778;9.126;2023-04-25T06:40:10;3.22;;;2.08;;
21943;SDS011;11136;48.778;9.126;2023-04-25T06:42:36;2.35;;;2.03;;
21943;SDS011;11136;48.778;9.126;2023-04-25T06:45:02;2.35;;;2.05;;
21943;SDS011;11136;48.778;9.126;2023-04-25T06:47:28;2.33;;;1.92;;
21943;SDS011;11136;48.778;9.126;2023-04-25T06:49:54;2.53;;;2.33;;
21943;SDS011;11136;48.778;9.126;2023-04-25T06:52:20;5.15;;;2.00;;
21943;SDS011;11136;48.778;9.126;2023-04-25T06:54:47;2.70;;;2.17;;
21943;SDS011;11136;48.778;9.126;2023-04-25T06:57:12;4.63;;;2.50;;
21943;SDS011;11136;48.778;9.126;2023-04-25T06:59:38;3.03;;;2.25;;
21943;SDS011;11136;48.778;9.126;2023-04-25T07:02:04;4.38;;;2.20;;
21943;SDS011;11136;48.778;9.126;2023-04-25T07:04:31;3.05;;;2.30;;
21943;SDS011;11136;48.778;9.126;2023-04-25T07:06:56;2.45;;;2.25;;
21943;SDS011;11136;48.778;9.126;2023-04-25T07:09:22;4.40;;;2.40;;
21943;SDS011;11136;48.778;9.126;2023-04-25T07:11:48;2.70;;;2.20;;
21943;SDS011;11136;48.778;9.126;2023-04-25T07:14:13;3.00;;;2.25;;
21943;SDS011;11136;48.778;9.126;2023-04-25T07:16:40;4.85;;;2.15;;
21943;SDS011;11136;48.778;9.126;2023-04-25T07:19:05;5.40;;;2.78;;
21943;SDS011;11136;48.778;9.126;2023-04-25T07:21:31;4.95;;;2.30;;
21943;SDS011;11136;48.778;9.126;2023-04-25T07:23:57;4.43;;;2.38;;
21943;SDS011;11136;48.778;9.126;2023-04-25T07:26:23;3.42;;;2.78;;
21943;SDS011;11136;48.778;9.126;2023-04-25T07:28:49;5.00;;;2.55;;
21943;SDS011;11136;48.778;9.126;2023-04-25T07:31:16;4.32;;;2.60;;
21943;SDS011;11136;48.778;9.126;2023-04-25T07:33:43;2.95;;;2.50;;
21943;SDS011;11136;48.778;9.126;2023-04-25T07:36:12;3.53;;;2.53;;
21943;SDS011;11136;48.778;9.126;2023-04-25T07:38:41;3.70;;;2.45;;
21943;SDS011;11136;48.778;9.126;2023-04-25T07:41:06;6.93;;;3.05;;
21943;SDS011;11136;48.778;9.126;2023-04-25T07:43:32;4.05;;;2.78;;
21943;SDS011;11136;48.778;9.126;2023-04-25T07:45:57;3.25;;;2.35;;
21943;SDS011;11136;48.778;9.126;2023-04-25T07:48:23;6.10;;;2.67;;
21943;SDS011;11136;48.778;9.126;2023-04-25T07:50:49;3.40;;;2.45;;
21943;SDS011;11136;48.778;9.126;2023-04-25T07:53:14;2.65;;;2.42;;
21943;SDS011;11136;48.778;9.126;2023-04-25T07:55:40;4.45;;;2.72;;
21943;SDS011;11136;48.778;9.126;2023-04-25T07:58:06;4.55;;;3.22;;
21943;SDS011;11136;48.778;9.126;2023-04-25T08:00:32;4.47;;;2.92;;
21943;SDS011;11136;48.778;9.126;2023-04-25T08:02:57;5.57;;;2.65;;
21943;SDS011;11136;48.778;9.126;2023-04-25T08:05:23;4.07;;;2.88;;
21943;SDS011;11136;48.778;9.126;2023-04-25T08:07:48;3.22;;;2.80;;
21943;SDS011;11136;48.778;9.126;2023-04-25T08:10:15;3.78;;;2.90;;
21943;SDS011;11136;48.778;9.126;2023-04-25T08:12:40;4.93;;;2.65;;
21943;SDS011;11136;48.778;9.126;2023-04-25T08:15:06;4.40;;;2.58;;
21943;SDS011;11136;48.778;9.126;2023-04-25T08:17:33;4.68;;;2.90;;
21943;SDS011;11136;48.778;9.126;2023-04-25T08:19:58;4.28;;;2.95;;
21943;SDS011;11136;48.778;9.126;2023-04-25T08:22:24;4.88;;;2.95;;
21943;SDS011;11136;48.778;9.126;2023-04-25T08:24:50;5.88;;;2.88;;
21943;SDS011;11136;48.778;9.126;2023-04-25T08:27:16;4.18;;;2.97;;
21943;SDS011;11136;48.778;9.126;2023-04-25T08:29:46;4.32;;;2.92;;
21943;SDS011;11136;48.778;9.126;2023-04-25T08:32:11;3.55;;;2.85;;
21943;SDS011;11136;48.778;9.126;2023-04-25T08:34:37;3.88;;;2.88;;
21943;SDS011;11136;48.778;9.126;2023-04-25T08:37:07;3.35;;;3.03;;
21943;SDS011;11136;48.778;9.126;2023-04-25T08:39:34;2.85;;;2.60;;
21943;SDS011;11136;48.778;9.126;2023-04-25T08:42:00;4.85;;;3.10;;
21943;SDS011;11136;48.778;9.126;2023-04-25T08:44:31;5.25;;;2.85;;
21943;SDS011;11136;48.778;9.126;2023-04-25T08:46:59;8.73;;;3.13;;
21943;SDS011;11136;48.778;9.126;2023-04-25T08:49:31;3.10;;;2.80;;
21943;SDS011;11136;48.778;9.126;2023-04-25T08:52:02;4.20;;;2.90;;
21943;SDS011;11136;48.778;9.126;2023-04-25T08:54:31;3.90;;;3.20;;
21943;SDS011;11136;48.778;9.126;2023-04-25T08:56:57;3.65;;;2.55;;
21943;SDS011;11136;48.778;9.126;2023-04-25T08:59:27;4.05;;;2.90;;
21943;SDS011;11136;48.778;9.126;2023-04-25T09:01:54;7.32;;;3.10;;
21943;SDS011;11136;48.778;9.126;2023-04-25T09:04:20;3.78;;;2.63;;
21943;SDS011;11136;48.778;9.126;2023-04-25T09:06:46;3.30;;;2.85;;
21943;SDS011;11136;48.778;9.126;2023-04-25T09:09:12;3.70;;;3.25;;
21943;SDS011;11136;48.778;9.126;2023-04-25T09:11:39;5.70;;;3.40;;
21943;SDS011;11136;48.778;9.126;2023-04-25T09:19:22;6.88;;;3.55;;
21943;SDS011;11136;48.778;9.126;2023-04-25T09:21:55;5.43;;;3.15;;
21943;SDS011;11136;48.778;9.126;2023-04-25T09:24:38;9.20;;;3.75;;
21943;SDS011;11136;48.778;9.126;2023-04-25T09:27:06;3.50;;;2.95;;
21943;SDS011;11136;48.778;9.126;2023-04-25T09:29:37;4.45;;;3.40;;
21943;SDS011;11136;48.778;9.126;2023-04-25T09:32:11;3.95;;;3.30;;
21943;SDS011;11136;48.778;9.126;2023-04-25T09:34:41;8.07;;;3.38;;
21943;SDS011;11136;48.778;9.126;2023-04-25T09:37:11;5.97;;;3.60;;
21943;SDS011;11136;48.778;9.126;2023-04-25T09:39:37;4.72;;;2.55;;
21943;SDS011;11136;48.778;9.126;2023-04-25T09:42:03;3.80;;;2.28;;
21943;SDS011;11136;48.778;9.126;2023-04-25T09:44:30;2.88;;;2.58;;
21943;SDS011;11136;48.778;9.126;2023-04-25T09:46:56;6.75;;;2.88;;
21943;SDS011;11136;48.778;9.126;2023-04-25T09:49:22;5.00;;;3.45;;
21943;SDS011;11136;48.778;9.126;2023-04-25T09:51:57;4.63;;;3.58;;
21943;SDS011;11136;48.778;9.126;2023-04-25T09:54:24;4.30;;;3.10;;
21943;SDS011;11136;48.778;9.126;2023-04-25T09:56:53;3.33;;;2.38;;
21943;SDS011;11136;48.778;9.126;2023-04-25T09:59:20;5.18;;;2.53;;
21943;SDS011;11136;48.778;9.126;2023-04-25T10:01:47;5.45;;;2.22;;
21943;SDS011;11136;48.778;9.126;2023-04-25T10:04:16;2.47;;;1.77;;
21943;SDS011;11136;48.778;9.126;2023-04-25T10:06:45;2.50;;;1.73;;
21943;SDS011;11136;48.778;9.126;2023-04-25T10:09:14;6.38;;;1.48;;
21943;SDS011;11136;48.778;9.126;2023-04-25T10:11:40;1.90;;;1.70;;
21943;SDS011;11136;48.778;9.126;2023-04-25T10:14:06;1.40;;;1.30;;
21943;SDS011;11136;48.778;9.126;2023-04-25T10:16:32;1.50;;;1.40;;
21943;SDS011;11136;48.778;9.126;2023-04-25T10:19:13;1.08;;;0.98;;
21943;SDS011;11136;48.778;9.126;2023-04-25T10:21:40;1.10;;;1.00;;
21943;SDS011;11136;48.778;9.126;2023-04-25T10:24:13;2.25;;;1.00;;
21943;SDS011;11136;48.778;9.126;2023-04-25T10:26:40;1.20;;;0.90;;
21943;SDS011;11136;48.778;9.126;2023-04-25T10:29:06;1.20;;;0.75;;
21943;SDS011;11136;48.778;9.126;2023-04-25T10:31:32;1.10;;;1.00;;
21943;SDS011;11136;48.778;9.126;2023-04-25T10:34:01;3.53;;;2.10;;
21943;SDS011;11136;48.778;9.126;2023-04-25T10:36:26;0.80;;;0.80;;
21943;SDS011;11136;48.778;9.126;2023-04-25T10:38:58;1.65;;;1.10;;
21943;SDS011;11136;48.778;9.126;2023-04-25T10:41:32;1.10;;;1.00;;
21943;SDS011;11136;48.778;9.126;2023-04-25T10:44:11;1.23;;;1.13;;
21943;SDS011;11136;48.778;9.126;2023-04-25T10:46:36;3.17;;;1.08;;
21943;SDS011;11136;48.778;9.126;2023-04-25T10:49:03;2.05;;;1.40;;
21943;SDS011;11136;48.778;9.126;2023-04-25T10:53:56;1.63;;;1.50;;
21943;SDS011;11136;48.778;9.126;2023-04-25T10:56:26;1.77;;;1.67;;
21943;SDS011;11136;48.778;9.126;2023-04-25T10:59:04;3.00;;;2.10;;
21943;SDS011;11136;48.778;9.126;2023-04-25T11:01:38;4.65;;;2.65;;
21943;SDS011;11136;48.778;9.126;2023-04-25T11:04:04;3.58;;;2.90;;
21943;SDS011;11136;48.778;9.126;2023-04-25T11:09:14;3.40;;;2.00;;
21943;SDS011;11136;48.778;9.126;2023-04-25T11:11:40;3.33;;;2.70;;
21943;SDS011;11136;48.778;9.126;2023-04-25T11:14:06;2.90;;;2.30;;
21943;SDS011;11136;48.778;9.126;2023-04-25T11:16:31;4.15;;;3.00;;
21943;SDS011;11136;48.778;9.126;2023-04-25T11:18:58;3.17;;;2.38;;
21943;SDS011;11136;48.778;9.126;2023-04-25T11:21:26;2.22;;;1.63;;
21943;SDS011;11136;48.778;9.126;2023-04-25T11:23:56;2.70;;;1.92;;
21943;SDS011;11136;48.778;9.126;2023-04-25T11:26:23;2.05;;;1.85;;
21943;SDS011;11136;48.778;9.126;2023-04-25T11:28:49;1.92;;;1.70;;
21943;SDS011;11136;48.778;9.126;2023-04-25T11:31:15;2.63;;;1.60;;
21943;SDS011;11136;48.778;9.126;2023-04-25T11:33:41;3.80;;;2.63;;
21943;SDS011;11136;48.778;9.126;2023-04-25T11:36:07;2.28;;;1.88;;
21943;SDS011;11136;48.778;9.126;2023-04-25T11:38:33;3.25;;;1.80;;
21943;SDS011;11136;48.778;9.126;2023-04-25T11:40:59;2.00;;;1.52;;
21943;SDS011;11136;48.778;9.126;2023-04-25T11:43:25;2.78;;;2.00;;
21943;SDS011;11136;48.778;9.126;2023-04-25T11:45:51;2.05;;;1.60;;
21943;SDS011;11136;48.778;9.126;2023-04-25T11:48:20;2.13;;;1.90;;
21943;SDS011;11136;48.778;9.126;2023-04-25T11:50:46;4.35;;;2.33;;
21943;SDS011;11136;48.778;9.126;2023-04-25T11:53:11;2.20;;;1.95;;
21943;SDS011;11136;48.778;9.126;2023-04-25T11:55:37;2.22;;;1.90;;
21943;SDS011;11136;48.778;9.126;2023-04-25T11:58:04;3.30;;;2.25;;
21943;SDS011;11136;48.778;9.126;2023-04-25T12:00:30;4.70;;;2.65;;
21943;SDS011;11136;48.778;9.126;2023-04-25T12:02:56;3.15;;;2.80;;
21943;SDS011;11136;48.778;9.126;2023-04-25T12:05:27;5.40;;;2.88;;
21943;SDS011;11136;48.778;9.126;2023-04-25T12:07:54;4.78;;;3.10;;
21943;SDS011;11136;48.778;9.126;2023-04-25T12:10:20;3.08;;;2.67;;
21943;SDS011;11136;48.778;9.126;2023-04-25T12:12:46;3.50;;;2.80;;
21943;SDS011;11136;48.778;9.126;2023-04-25T12:15:16;4.25;;;3.15;;
21943;SDS011;11136;48.778;9.126;2023-04-25T12:17:47;2.95;;;2.53;;
21943;SDS011;11136;48.778;9.126;2023-04-25T12:20:15;3.83;;;2.70;;
21943;SDS011;11136;48.778;9.126;2023-04-25T12:22:44;3.55;;;2.60;;
21943;SDS011;11136;48.778;9.126;2023-04-25T12:25:11;5.63;;;3.58;;
21943;SDS011;11136;48.778;9.126;2023-04-25T12:27:38;4.32;;;3.35;;
21943;SDS011;11136;48.778;9.126;2023-04-25T12:30:07;5.57;;;3.70;;
21943;SDS011;11136;48.778;9.126;2023-04-25T12:32:33;4.05;;;3.35;;
21943;SDS011;11136;48.778;9.126;2023-04-25T12:34:59;5.63;;;4.22;;
21943;SDS011;11136;48.778;9.126;2023-04-25T12:37:24;5.07;;;3.97;;
21943;SDS011;11136;48.778;9.126;2023-04-25T12:39:51;7.50;;;4.72;;
21943;SDS011;11136;48.778;9.126;2023-04-25T12:42:17;8.05;;;4.07;;
21943;SDS011;11136;48.778;9.126;2023-04-25T12:44:42;7.35;;;4.60;;
21943;SDS011;11136;48.778;9.126;2023-04-25T12:47:08;5.70;;;3.85;;
21943;SDS011;11136;48.778;9.126;2023-04-25T12:49:34;10.93;;;4.18;;
21943;SDS011;11136;48.778;9.126;2023-04-25T12:52:00;5.18;;;3.88;;
21943;SDS011;11136;48.778;9.126;2023-04-25T12:54:25;5.07;;;3.70;;
21943;SDS011;11136;48.778;9.126;2023-04-25T12:56:51;4.20;;;3.67;;
21943;SDS011;11136;48.778;9.126;2023-04-25T12:59:17;7.15;;;4.20;;
21943;SDS011;11136;48.778;9.126;2023-04-25T13:01:43;7.13;;;5.00;;
21943;SDS011;11136;48.778;9.126;2023-04-25T13:04:10;6.50;;;4.18;;
21943;SDS011;11136;48.778;9.126;2023-04-25T13:06:36;5.85;;;4.53;;
21943;SDS011;11136;48.778;9.126;2023-04-25T13:09:01;8.82;;;4.80;;
21943;SDS011;11136;48.778;9.126;2023-04-25T13:11:28;9.60;;;4.40;;
21943;SDS011;11136;48.778;9.126;2023-04-25T13:13:55;7.97;;;3.30;;
21943;SDS011;11136;48.778;9.126;2023-04-25T13:16:21;4.78;;;3.50;;
21943;SDS011;11136;48.778;9.126;2023-04-25T13:18:47;3.80;;;3.38;;
21943;SDS011;11136;48.778;9.126;2023-04-25T13:21:13;5.60;;;3.80;;
21943;SDS011;11136;48.778;9.126;2023-04-25T13:23:38;7.63;;;4.50;;
21943;SDS011;11136;48.778;9.126;2023-04-25T13:26:06;9.45;;;5.22;;
21943;SDS011;11136;48.778;9.126;2023-04-25T13:28:32;5.70;;;4.78;;
21943;SDS011;11136;48.778;9.126;2023-04-25T13:30:57;9.68;;;5.22;;
21943;SDS011;11136;48.778;9.126;2023-04-25T13:33:23;9.85;;;5.18;;
21943;SDS011;11136;48.778;9.126;2023-04-25T13:35:49;11.10;;;5.80;;
21943;SDS011;11136;48.778;9.126;2023-04-25T13:38:24;7.38;;;5.78;;
21943;SDS011;11136;48.778;9.126;2023-04-25T13:40:50;8.18;;;4.50;;
21943;SDS011;11136;48.778;9.126;2023-04-25T13:43:18;7.90;;;4.95;;
21943;SDS011;11136;48.778;9.126;2023-04-25T13:45:46;6.97;;;5.40;;
21943;SDS011;11136;48.778;9.126;2023-04-25T13:48:11;8.23;;;5.32;;
21943;SDS011;11136;48.778;9.126;2023-04-25T13:50:37;9.32;;;5.95;;
21943;SDS011;11136;48.778;9.126;2023-04-25T13:53:02;7.40;;;5.47;;
21943;SDS011;11136;48.778;9.126;2023-04-25T13:55:28;8.38;;;5.82;;
21943;SDS011;11136;48.778;9.126;2023-04-25T13:57:55;8.40;;;6.13;;
21943;SDS011;11136;48.778;9.126;2023-04-25T14:00:20;10.88;;;5.80;;
21943;SDS011;11136;48.778;9.126;2023-04-25T14:02:46;7.40;;;5.82;;
21943;SDS011;11136;48.778;9.126;2023-04-25T14:05:11;10.93;;;6.25;;
21943;SDS011;11136;48.778;9.126;2023-04-25T14:07:38;8.80;;;5.13;;
21943;SDS011;11136;48.778;9.126;2023-04-25T14:10:04;7.63;;;5.43;;
21943;SDS011;11136;48.778;9.126;2023-04-25T14:12:32;7.38;;;5.18;;
21943;SDS011;11136;48.778;9.126;2023-04-25T14:14:58;7.72;;;4.82;;
21943;SDS011;11136;48.778;9.126;2023-04-25T14:17:23;6.00;;;3.67;;
21943;SDS011;11136;48.778;9.126;2023-04-25T14:19:49;7.47;;;4.18;;
21943;SDS011;11136;48.778;9.126;2023-04-25T14:22:15;4.80;;;3.53;;
21943;SDS011;11136;48.778;9.126;2023-04-25T14:24:44;4.45;;;3.72;;
21943;SDS011;11136;48.778;9.126;2023-04-25T14:27:09;4.40;;;3.75;;
21943;SDS011;11136;48.778;9.126;2023-04-25T14:29:35;3.90;;;3.22;;
21943;SDS011;11136;48.778;9.126;2023-04-25T14:32:01;5.82;;;2.90;;
21943;SDS011;11136;48.778;9.126;2023-04-25T14:34:27;3.28;;;2.95;;
21943;SDS011;11136;48.778;9.126;2023-04-25T14:36:52;3.67;;;2.95;;
21943;SDS011;11136;48.778;9.126;2023-04-25T14:39:18;4.35;;;3.05;;
21943;SDS011;11136;48.778;9.126;2023-04-25T14:41:44;5.43;;;3.50;;
21943;SDS011;11136;48.778;9.126;2023-04-25T14:44:10;5.95;;;3.97;;
21943;SDS011;11136;48.778;9.126;2023-04-25T14:46:36;5.57;;;3.70;;
21943;SDS011;11136;48.778;9.126;2023-04-25T14:49:02;6.00;;;3.38;;
21943;SDS011;11136;48.778;9.126;2023-04-25T14:51:28;6.40;;;3.13;;
21943;SDS011;11136;48.778;9.126;2023-04-25T14:53:54;6.57;;;3.35;;